createdAt,value
2022-12-27T00:02:28.845Z,11.91
2022-12-27T00:05:31.224Z,11.80
2022-12-27T00:08:33.454Z,11.89
2022-12-27T00:11:42.617Z,11.77
2022-12-27T00:14:44.847Z,11.79
2022-12-27T00:17:47.113Z,11.77
2022-12-27T00:20:49.496Z,11.82
2022-12-27T00:27:15.402Z,11.83
2022-12-27T00:30:17.776Z,11.94
2022-12-27T00:33:19.952Z,11.98
2022-12-27T00:36:26.150Z,11.95
2022-12-27T00:39:28.420Z,12.00
2022-12-27T00:42:30.621Z,12.03
2022-12-27T00:45:33.491Z,12.14
2022-12-27T00:48:36.448Z,12.13
2022-12-27T00:51:38.705Z,12.14
2022-12-27T00:54:40.962Z,12.04
2022-12-27T00:57:43.333Z,12.01
2022-12-27T01:00:45.631Z,12.04
2022-12-27T01:03:48.143Z,12.01
2022-12-27T01:06:50.449Z,12.01
2022-12-27T01:09:52.745Z,12.05
2022-12-27T01:12:55.101Z,12.08
2022-12-27T01:15:57.360Z,12.13
2022-12-27T01:19:00.019Z,12.28
2022-12-27T01:22:03.273Z,12.30
2022-12-27T01:25:06.212Z,12.08
2022-12-27T01:28:08.789Z,12.01
2022-12-27T01:31:15.564Z,12.11
2022-12-27T01:34:18.318Z,12.24
2022-12-27T01:37:20.585Z,12.27
2022-12-27T01:40:22.821Z,12.24
2022-12-27T01:43:38.322Z,12.31
2022-12-27T01:46:40.557Z,12.24
2022-12-27T01:49:57.601Z,12.13
2022-12-27T01:53:06.891Z,12.08
2022-12-27T01:56:18.096Z,12.10
2022-12-27T01:59:20.332Z,11.95
2022-12-27T02:02:22.837Z,11.84
2022-12-27T02:05:27.495Z,11.93
2022-12-27T02:09:04.940Z,11.94
2022-12-27T02:12:09.103Z,11.93
2022-12-27T02:15:11.402Z,11.83
2022-12-27T02:18:13.686Z,11.83
2022-12-27T02:21:45.279Z,11.69
2022-12-27T02:25:08.637Z,11.66
2022-12-27T02:28:33.154Z,11.80
2022-12-27T02:31:49.198Z,11.84
2022-12-27T02:34:59.346Z,11.72
2022-12-27T02:38:03.751Z,11.66
2022-12-27T02:41:28.090Z,11.66
2022-12-27T02:44:49.115Z,11.63
2022-12-27T02:48:10.435Z,11.67
2022-12-27T02:52:02.289Z,11.49
2022-12-27T02:55:16.477Z,11.43
2022-12-27T02:58:21.438Z,11.36
2022-12-27T03:02:04.457Z,11.29
2022-12-27T03:05:39.042Z,11.26
2022-12-27T03:09:00.923Z,11.36
2022-12-27T03:12:32.227Z,11.14
2022-12-27T03:15:56.746Z,11.01
2022-12-27T03:19:36.940Z,10.88
2022-12-27T03:23:00.239Z,10.85
2022-12-27T03:26:05.670Z,10.75
2022-12-27T03:29:27.922Z,10.95
2022-12-27T03:32:49.051Z,11.09
2022-12-27T03:36:18.297Z,11.02
2022-12-27T03:39:31.955Z,10.97
2022-12-27T03:42:58.609Z,10.78
2022-12-27T03:46:25.253Z,10.65
2022-12-27T03:49:44.114Z,10.41
2022-12-27T03:52:54.698Z,10.32
2022-12-27T03:55:57.760Z,10.20
2022-12-27T03:59:02.636Z,9.99
2022-12-27T04:02:05.866Z,9.83
2022-12-27T04:05:09.306Z,9.68
2022-12-27T04:08:29.929Z,9.63
2022-12-27T04:11:50.653Z,9.62
2022-12-27T04:15:11.183Z,9.57
2022-12-27T04:18:31.627Z,9.72
2022-12-27T04:21:56.175Z,9.79
2022-12-27T04:25:16.700Z,9.89
2022-12-27T04:28:37.786Z,9.90
2022-12-27T04:31:58.480Z,9.90
2022-12-27T04:35:00.821Z,10.12
2022-12-27T04:38:03.162Z,10.20
2022-12-27T04:41:23.870Z,10.14
2022-12-27T04:44:44.471Z,10.05
2022-12-27T04:48:05.082Z,10.13
2022-12-27T04:51:27.527Z,9.98
2022-12-27T04:54:48.346Z,9.95
2022-12-27T04:57:51.492Z,9.92
2022-12-27T05:01:14.464Z,10.02
2022-12-27T05:04:16.901Z,10.16
2022-12-27T05:07:37.913Z,10.21
2022-12-27T05:10:58.591Z,10.17
2022-12-27T05:14:01.972Z,10.28
2022-12-27T05:17:04.227Z,10.16
2022-12-27T05:20:07.089Z,10.10
2022-12-27T05:23:29.425Z,10.13
2022-12-27T05:26:32.253Z,10.08
2022-12-27T05:29:36.080Z,10.06
2022-12-27T05:32:38.372Z,9.96
2022-12-27T05:35:41.118Z,10.10
2022-12-27T05:38:43.829Z,10.16
2022-12-27T05:41:46.032Z,10.20
2022-12-27T05:44:48.291Z,10.24
2022-12-27T05:47:50.526Z,10.02
2022-12-27T05:50:52.768Z,10.09
2022-12-27T05:53:58.653Z,10.10
2022-12-27T05:57:00.858Z,10.02
2022-12-27T06:00:07.445Z,9.98
2022-12-27T06:03:14.440Z,9.95
2022-12-27T06:06:16.816Z,9.89
2022-12-27T06:09:19.026Z,9.82
2022-12-27T06:12:21.214Z,9.81
2022-12-27T06:15:23.445Z,9.74
2022-12-27T06:18:25.801Z,9.63
2022-12-27T06:21:28.074Z,9.59
2022-12-27T06:24:30.283Z,9.41
2022-12-27T06:27:32.530Z,9.26
2022-12-27T06:30:36.396Z,9.07
2022-12-27T06:33:38.852Z,8.94
2022-12-27T06:36:42.272Z,9.08
2022-12-27T06:39:45.202Z,9.06
2022-12-27T06:42:47.425Z,8.76
2022-12-27T06:45:59.578Z,8.66
2022-12-27T06:49:02.239Z,8.57
2022-12-27T06:52:04.891Z,8.65
2022-12-27T06:55:07.325Z,8.72
2022-12-27T06:58:09.576Z,8.65
2022-12-27T07:01:21.009Z,8.65
2022-12-27T07:04:23.327Z,8.46
2022-12-27T07:07:25.608Z,8.44
2022-12-27T07:10:27.828Z,8.45
2022-12-27T07:13:34.420Z,8.25
2022-12-27T07:16:37.278Z,8.39
2022-12-27T07:19:40.235Z,8.56
2022-12-27T07:22:42.482Z,8.57
2022-12-27T07:25:44.683Z,8.65
2022-12-27T07:28:47.585Z,8.87
2022-12-27T07:31:49.817Z,9.48
2022-12-27T07:34:52.075Z,10.24
2022-12-27T07:37:54.995Z,10.92
2022-12-27T07:41:01.868Z,10.75
2022-12-27T07:44:04.426Z,10.80
2022-12-27T07:47:06.772Z,10.84
2022-12-27T07:50:09.439Z,10.68
2022-12-27T07:53:11.681Z,10.49
2022-12-27T07:56:21.759Z,10.43
2022-12-27T07:59:28.025Z,12.52
2022-12-27T08:02:30.370Z,14.76
2022-12-27T08:05:32.636Z,16.02
2022-12-27T08:08:43.253Z,17.38
2022-12-27T08:11:45.493Z,18.47
2022-12-27T08:14:47.691Z,17.67
2022-12-27T08:17:49.929Z,19.26
2022-12-27T08:20:52.472Z,19.24
2022-12-27T08:23:54.727Z,17.35
2022-12-27T08:26:56.995Z,16.53
2022-12-27T08:29:59.378Z,16.99
2022-12-27T08:33:03.111Z,17.08
2022-12-27T08:36:22.354Z,18.83
2022-12-27T08:39:30.131Z,20.46
2022-12-27T08:42:32.444Z,21.34
2022-12-27T08:45:36.631Z,21.93
2022-12-27T08:48:39.024Z,22.56
2022-12-27T08:51:41.791Z,21.96
2022-12-27T08:54:44.126Z,22.50
2022-12-27T08:57:46.355Z,22.21
2022-12-27T09:00:48.665Z,21.81
2022-12-27T09:03:51.010Z,22.20
2022-12-27T09:06:55.784Z,21.15
2022-12-27T09:09:58.111Z,20.13
2022-12-27T09:13:00.351Z,19.06
2022-12-27T09:16:11.171Z,17.57
2022-12-27T09:19:13.486Z,17.28
2022-12-27T09:22:15.677Z,18.02
2022-12-27T09:25:18.097Z,18.88
2022-12-27T09:28:20.397Z,19.30
2022-12-27T09:31:23.522Z,18.55
2022-12-27T09:34:25.796Z,16.92
2022-12-27T09:37:28.116Z,15.79
2022-12-27T09:40:30.465Z,15.52
2022-12-27T09:43:58.190Z,14.87
2022-12-27T09:47:12.210Z,14.59
2022-12-27T09:50:47.157Z,14.46
2022-12-27T09:53:58.946Z,13.85
2022-12-27T09:57:19.362Z,13.63
2022-12-27T10:00:30.937Z,14.45
2022-12-27T10:03:37.843Z,15.14
2022-12-27T10:06:48.943Z,14.91
2022-12-27T10:09:57.097Z,14.28
2022-12-27T10:13:17.569Z,14.91
2022-12-27T10:16:28.831Z,14.81
2022-12-27T10:19:46.241Z,14.37
2022-12-27T10:22:53.047Z,13.71
2022-12-27T10:26:02.114Z,13.78
2022-12-27T10:29:22.876Z,13.20
2022-12-27T10:32:25.869Z,12.99
2022-12-27T10:35:28.997Z,12.88
2022-12-27T10:38:33.828Z,12.85
2022-12-27T10:42:04.994Z,12.72
2022-12-27T10:45:28.590Z,12.62
2022-12-27T10:48:47.387Z,12.73
2022-12-27T10:52:17.155Z,12.79
2022-12-27T10:55:37.295Z,12.83
2022-12-27T10:58:40.891Z,12.73
2022-12-27T11:01:46.032Z,12.61
2022-12-27T11:05:00.352Z,12.44
2022-12-27T11:08:20.304Z,12.24
2022-12-27T11:11:27.218Z,12.03
2022-12-27T11:14:29.482Z,11.98
2022-12-27T11:17:41.376Z,11.72
2022-12-27T11:20:50.701Z,11.60
2022-12-27T11:23:57.601Z,11.56
2022-12-27T11:27:00.332Z,11.59
2022-12-27T11:30:03.495Z,11.62
2022-12-27T11:33:39.354Z,11.73
2022-12-27T11:36:45.956Z,11.59
2022-12-27T11:39:55.409Z,11.58
2022-12-27T11:43:09.142Z,11.29
2022-12-27T11:46:26.053Z,11.15
2022-12-27T11:49:33.387Z,10.78
2022-12-27T11:53:01.705Z,10.77
2022-12-27T11:56:16.884Z,10.68
2022-12-27T11:59:30.268Z,10.64
2022-12-27T12:03:10.915Z,10.49
2022-12-27T12:06:16.803Z,10.50
2022-12-27T12:09:24.927Z,10.49
2022-12-27T12:13:00.182Z,10.40
2022-12-27T12:16:11.844Z,10.30
2022-12-27T12:19:38.637Z,10.28
2022-12-27T12:23:02.546Z,10.32
2022-12-27T12:26:18.462Z,10.20
2022-12-27T12:29:58.377Z,10.14
2022-12-27T12:33:23.726Z,10.16
2022-12-27T12:36:25.921Z,10.20
2022-12-27T12:39:51.444Z,10.10
2022-12-27T12:43:05.541Z,10.08
2022-12-27T12:46:37.249Z,10.08
2022-12-27T12:49:45.527Z,10.06
2022-12-27T12:53:14.217Z,10.14
2022-12-27T12:56:50.267Z,10.06
2022-12-27T13:00:19.854Z,10.05
2022-12-27T13:03:22.082Z,10.03
2022-12-27T13:07:02.322Z,9.95
2022-12-27T13:10:10.385Z,9.88
2022-12-27T13:13:34.115Z,9.89
2022-12-27T13:17:10.815Z,9.88
2022-12-27T13:20:54.219Z,9.92
2022-12-27T13:24:24.944Z,9.96
2022-12-27T13:27:42.068Z,9.86
2022-12-27T13:31:07.118Z,9.83
2022-12-27T13:34:41.658Z,9.74
2022-12-27T13:37:57.949Z,9.89
2022-12-27T13:41:22.538Z,9.65
2022-12-27T13:45:03.934Z,9.58
2022-12-27T13:48:18.197Z,9.58
2022-12-27T13:52:17.269Z,9.62
2022-12-27T13:55:25.192Z,9.47
2022-12-27T13:58:36.147Z,9.47
2022-12-27T14:02:00.350Z,9.30
2022-12-27T14:05:02.630Z,9.20
2022-12-27T14:08:10.692Z,9.13
2022-12-27T14:11:27.485Z,9.07
2022-12-27T14:14:31.401Z,9.07
2022-12-27T14:18:07.086Z,9.06
2022-12-27T14:21:12.018Z,8.90
2022-12-27T14:24:35.896Z,8.77
2022-12-27T14:28:05.349Z,8.63
2022-12-27T14:31:33.390Z,8.52
2022-12-27T14:34:59.707Z,8.56
2022-12-27T14:38:41.950Z,8.62
2022-12-27T14:41:59.445Z,8.45
2022-12-27T14:45:26.085Z,8.38
2022-12-27T14:49:05.220Z,8.29
2022-12-27T14:52:30.802Z,8.22
2022-12-27T14:55:45.456Z,8.38
2022-12-27T14:59:03.833Z,8.34
2022-12-27T15:02:22.097Z,8.26
2022-12-27T15:05:36.472Z,8.18
2022-12-27T15:08:51.067Z,7.87
2022-12-27T15:12:15.129Z,7.80
2022-12-27T15:15:28.675Z,7.67
2022-12-27T15:18:43.668Z,7.47
2022-12-27T15:22:03.237Z,7.43
2022-12-27T15:25:22.033Z,7.43
2022-12-27T15:28:48.956Z,7.43
2022-12-27T15:32:23.801Z,7.49
2022-12-27T15:35:40.800Z,7.54
2022-12-27T15:38:44.514Z,7.36
2022-12-27T15:42:17.078Z,7.35
2022-12-27T15:45:42.929Z,7.18
2022-12-27T15:49:11.241Z,7.13
2022-12-27T15:52:46.969Z,7.01
2022-12-27T15:56:19.428Z,7.08
2022-12-27T15:59:42.866Z,7.06
2022-12-27T16:02:48.069Z,7.03
2022-12-27T16:05:53.152Z,7.06
2022-12-27T16:09:26.279Z,7.08
2022-12-27T16:12:48.942Z,7.18
2022-12-27T16:15:55.157Z,7.22
2022-12-27T16:19:15.000Z,7.15
2022-12-27T16:22:31.652Z,7.22
2022-12-27T16:25:43.486Z,7.16
2022-12-27T16:28:58.094Z,7.16
2022-12-27T16:32:32.675Z,7.11
2022-12-27T16:35:34.965Z,7.09
2022-12-27T16:38:58.567Z,7.13
2022-12-27T16:42:07.240Z,7.20
2022-12-27T16:45:35.448Z,7.13
2022-12-27T16:49:02.693Z,7.09
2022-12-27T16:52:47.415Z,6.99
2022-12-27T16:56:16.971Z,7.01
2022-12-27T17:00:13.145Z,7.02
2022-12-27T17:03:21.024Z,7.01
2022-12-27T17:06:32.387Z,6.95
2022-12-27T17:09:40.689Z,6.89
2022-12-27T17:12:49.043Z,6.82
2022-12-27T17:16:01.464Z,6.61
2022-12-27T17:19:07.759Z,6.43
2022-12-27T17:22:15.460Z,6.30
2022-12-27T17:25:22.818Z,6.23
2022-12-27T17:28:35.453Z,5.56
2022-12-27T17:32:03.140Z,5.23
2022-12-27T17:35:17.395Z,5.51
2022-12-27T17:38:31.862Z,5.49
2022-12-27T17:42:05.028Z,4.96
2022-12-27T17:45:31.199Z,4.67
2022-12-27T17:48:34.274Z,4.60
2022-12-27T17:51:40.943Z,4.58
2022-12-27T17:55:01.610Z,4.60
2022-12-27T17:58:07.164Z,4.67
2022-12-27T18:01:09.605Z,4.65
2022-12-27T18:04:23.265Z,4.63
2022-12-27T18:07:31.243Z,4.72
2022-12-27T18:10:34.670Z,4.72
2022-12-27T18:13:41.235Z,4.65
2022-12-27T18:16:43.907Z,4.67
2022-12-27T18:19:46.150Z,4.55
2022-12-27T18:22:48.415Z,4.44
2022-12-27T18:26:13.134Z,4.29
2022-12-27T18:29:16.005Z,4.34
2022-12-27T18:32:19.243Z,4.22
2022-12-27T18:35:24.410Z,4.36
2022-12-27T18:38:32.637Z,4.48
2022-12-27T18:41:39.545Z,4.46
2022-12-27T18:44:48.096Z,4.48
2022-12-27T18:47:53.511Z,4.28
2022-12-27T18:50:58.177Z,4.15
2022-12-27T18:54:00.639Z,4.12
2022-12-27T18:57:05.631Z,4.05
2022-12-27T19:00:26.561Z,4.07
2022-12-27T19:03:32.714Z,3.98
2022-12-27T19:06:37.904Z,3.83
2022-12-27T19:09:53.393Z,3.80
2022-12-27T19:12:56.679Z,3.70
2022-12-27T19:15:59.276Z,3.62
2022-12-27T19:19:10.396Z,3.50
2022-12-27T19:22:31.136Z,3.40
2022-12-27T19:25:35.545Z,3.39
2022-12-27T19:28:37.791Z,3.29
2022-12-27T19:31:43.699Z,3.44
2022-12-27T19:34:50.230Z,3.32
2022-12-27T19:37:52.631Z,3.16
2022-12-27T19:41:03.549Z,3.06
2022-12-27T19:44:06.438Z,3.04
2022-12-27T19:47:13.625Z,2.98
2022-12-27T19:50:16.082Z,2.64
2022-12-27T19:53:23.487Z,2.80
2022-12-27T19:56:25.887Z,2.74
2022-12-27T19:59:28.133Z,2.72
2022-12-27T20:02:30.882Z,2.77
2022-12-27T20:06:14.133Z,2.77
2022-12-27T20:08:55.555Z,2.57
2022-12-27T20:11:57.903Z,2.48
2022-12-27T20:15:00.173Z,2.12
2022-12-27T20:18:02.397Z,1.79
2022-12-27T20:21:04.807Z,1.69
2022-12-27T20:24:09.847Z,1.61
2022-12-27T20:27:12.088Z,1.68
2022-12-27T20:30:14.322Z,1.76
2022-12-27T20:33:23.171Z,1.75
2022-12-27T20:36:25.508Z,1.73
2022-12-27T20:39:27.851Z,1.81
2022-12-27T20:42:30.128Z,1.87
2022-12-27T20:45:32.818Z,1.81
2022-12-27T20:48:39.299Z,1.76
2022-12-27T20:51:41.937Z,1.83
2022-12-27T20:54:44.222Z,1.76
2022-12-27T20:57:46.464Z,1.62
2022-12-27T21:00:48.667Z,1.52
2022-12-27T21:03:50.917Z,1.42
2022-12-27T21:06:54.283Z,1.49
2022-12-27T21:09:56.617Z,1.63
2022-12-27T21:12:58.894Z,1.76
2022-12-27T21:16:01.116Z,1.73
2022-12-27T21:19:05.013Z,1.69
2022-12-27T21:22:07.406Z,1.73
2022-12-27T21:25:09.927Z,1.72
2022-12-27T21:28:12.149Z,1.78
2022-12-27T21:31:16.242Z,1.81
2022-12-27T21:34:25.425Z,1.85
2022-12-27T21:37:27.645Z,1.58
2022-12-27T21:40:29.861Z,1.58
2022-12-27T21:43:34.107Z,1.58
2022-12-27T21:46:38.909Z,1.61
2022-12-27T21:49:41.512Z,1.68
2022-12-27T21:52:43.732Z,1.58
2022-12-27T21:55:46.256Z,1.32
2022-12-27T21:58:48.924Z,1.21
2022-12-27T22:01:52.666Z,1.08
2022-12-27T22:04:55.091Z,1.13
2022-12-27T22:07:57.564Z,1.20
2022-12-27T22:10:59.746Z,1.26
2022-12-27T22:14:02.437Z,1.27
2022-12-27T22:17:04.698Z,1.27
2022-12-27T22:20:07.299Z,1.28
2022-12-27T22:23:09.500Z,1.23
2022-12-27T22:26:17.295Z,1.24
2022-12-27T22:29:19.578Z,1.21
2022-12-27T22:32:21.810Z,1.23
2022-12-27T22:35:24.014Z,1.28
2022-12-27T22:38:26.209Z,1.27
2022-12-27T22:41:36.171Z,1.28
2022-12-27T22:44:38.434Z,1.24
2022-12-27T22:47:40.734Z,1.34
2022-12-27T22:50:42.994Z,1.40
2022-12-27T22:53:45.254Z,1.30
2022-12-27T22:56:47.512Z,1.18
2022-12-27T22:59:50.832Z,1.17
2022-12-27T23:02:53.082Z,1.37
2022-12-27T23:05:59.968Z,1.38
2022-12-27T23:09:02.893Z,1.42
2022-12-27T23:12:06.637Z,1.38
2022-12-27T23:15:09.500Z,1.27
2022-12-27T23:18:11.729Z,1.00
2022-12-27T23:21:20.222Z,1.05
2022-12-27T23:24:26.387Z,1.11
2022-12-27T23:27:28.610Z,0.94
2022-12-27T23:30:30.829Z,0.97
2022-12-27T23:33:33.706Z,0.79
2022-12-27T23:36:35.940Z,0.75
2022-12-27T23:39:38.140Z,0.73
2022-12-27T23:42:40.320Z,0.73
2022-12-27T23:45:42.525Z,0.89
2022-12-27T23:48:45.168Z,1.14
2022-12-27T23:51:47.416Z,0.97
2022-12-27T23:54:49.676Z,1.04
2022-12-27T23:57:52.199Z,1.23
